Terminal Aerodrome Forecast
Issued by NWS Sterling, VA

Home | Current Version | Previous Version | Text Only | Print | Product List | Glossary On
Versions: 1 2 3 4 5 6 7 8 9 10 11 12 13 14 15 16 17 18 19 20 21 22 23
932
FTUS41 KLWX 122113 AAA
TAFBWI
TAF AMD
KBWI 122113Z 1221/1324 19007KT P6SM BKN050 BKN060
     FM122300 19006KT 3SM -SHSN SCT010 BKN050
     FM130500 27008KT P6SM BKN035 BKN060
     FM130800 29019G32KT P6SM BKN050 BKN070
     FM131000 30023G39KT P6SM FEW070 SCT140
     FM131900 30020G32KT P6SM SCT040 BKN080=

USA.gov is the U.S. government's official web portal to all federal, state and local government web resources and services.